Time,TemperatureF,DewpointF,PressureIn,WindDirection,WindDirectionDegrees,WindSpeedMPH,WindSpeedGustMPH,Humidity,HourlyPrecipIn,Conditions,Clouds,dailyrainin,SoftwareType,DateUTC
2013-06-01 00:00:00,58.5,49.9,29.32,SSE,167,3.4,5.0,73,0.00,BKN,SKC,0.00,WeatherDisplay:10.37,2013-06-01 05:00:00,
2013-06-01 00:05:00,58.2,49.6,29.32,SSE,167,4.0,5.0,73,0.00,SCT,SKC,0.00,WeatherDisplay:10.37,2013-06-01 05:05:00,
2013-06-01 00:10:00,58.0,49.8,29.32,SSE,167,4.9,6.0,74,0.00,SCT,SKC,0.00,WeatherDisplay:10.37,2013-06-01 05:10:00,
2013-06-01 00:15:00,57.9,49.7,29.33,SSE,161,5.4,7.0,74,0.00,SCT,SKC,0.00,WeatherDisplay:10.37,2013-06-01 05:15:00,
2013-06-01 00:20:00,57.8,49.6,29.33,SSE,160,5.7,8.1,74,0.00,SCT,SKC,0.00,WeatherDisplay:10.37,2013-06-01 05:20:00,
2013-06-01 00:25:00,57.6,49.7,29.32,SSE,160,4.6,6.0,75,0.00,CLR,SKC,0.00,WeatherDisplay:10.37,2013-06-01 05:25:00,
2013-06-01 00:30:00,57.5,49.6,29.32,SSE,160,3.7,5.8,75,0.00,CLR,SKC,0.00,WeatherDisplay:10.37,2013-06-01 05:30:00,
2013-06-01 00:35:00,57.3,49.4,29.32,SSE,160,3.4,4.6,75,0.00,CLR,SKC,0.00,WeatherDisplay:10.37,2013-06-01 05:35:00,
2013-06-01 00:40:00,57.1,49.6,29.32,SSE,160,5.0,6.9,76,0.00,CLR,SKC,0.00,WeatherDisplay:10.37,2013-06-01 05:40:00,
2013-06-01 00:45:00,57.1,50.0,29.32,SSE,160,3.9,6.0,77,0.00,CLR,SKC,0.00,WeatherDisplay:10.37,2013-06-01 05:45:00,
2013-06-01 00:50:00,57.1,50.0,29.32,SSE,160,2.2,3.5,77,0.00,CLR,SKC,0.00,WeatherDisplay:10.37,2013-06-01 05:50:00,
2013-06-01 00:55:00,57.1,50.0,29.32,SSE,161,3.4,5.0,77,0.00,CLR,SKC,0.00,WeatherDisplay:10.37,2013-06-01 05:55:00,
2013-06-01 01:00:00,57.2,50.4,29.32,South,169,3.7,4.6,78,0.00,CLR,SKC,0.00,WeatherDisplay:10.37,2013-06-01 06:00:00,
2013-06-01 01:05:00,57.3,50.5,29.32,South,169,1.3,3.5,78,0.00,CLR,SKC,0.00,WeatherDisplay:10.37,2013-06-01 06:05:00,
2013-06-01 01:10:00,57.2,50.4,29.32,South,169,0.1,1.2,78,0.00,CLR,SKC,0.00,WeatherDisplay:10.37,2013-06-01 06:10:00,
2013-06-01 01:15:00,57.3,50.5,29.32,South,169,2.0,3.5,78,0.00,CLR,SKC,0.00,WeatherDisplay:10.37,2013-06-01 06:15:00,
2013-06-01 01:20:00,57.1,50.3,29.32,South,169,1.3,3.5,78,0.00,CLR,SKC,0.00,WeatherDisplay:10.37,2013-06-01 06:20:00,
2013-06-01 01:25:00,56.9,50.5,29.32,South,169,0.7,3.5,79,0.00,CLR,SKC,0.00,WeatherDisplay:10.37,2013-06-01 06:25:00,
2013-06-01 01:30:00,57.1,51.0,29.32,South,170,0.0,2.3,80,0.00,CLR,SKC,0.00,WeatherDisplay:10.37,2013-06-01 06:30:00,
2013-06-01 01:35:00,57.3,51.2,29.32,SSW,195,1.2,4.0,80,0.00,CLR,SKC,0.00,WeatherDisplay:10.37,2013-06-01 06:35:00,
2013-06-01 01:40:00,57.6,51.1,29.32,SSW,195,0.6,3.5,79,0.00,CLR,SKC,0.00,WeatherDisplay:10.37,2013-06-01 06:40:00,
2013-06-01 01:45:00,58.0,51.2,29.32,SSW,195,0.9,3.5,78,0.00,CLR,SKC,0.00,WeatherDisplay:10.37,2013-06-01 06:45:00,
2013-06-01 01:50:00,58.4,50.9,29.32,SSW,195,0.1,2.3,76,0.00,CLR,SKC,0.00,WeatherDisplay:10.37,2013-06-01 06:50:00,
2013-06-01 01:55:00,58.7,50.8,29.32,SSW,200,1.0,3.5,75,0.00,CLR,SKC,0.00,WeatherDisplay:10.37,2013-06-01 06:55:00,
2013-06-01 02:00:00,58.8,50.2,29.32,SSW,203,1.2,3.5,73,0.00,CLR,SKC,0.00,WeatherDisplay:10.37,2013-06-01 07:00:00,
2013-06-01 02:05:00,58.8,50.2,29.32,SSW,203,0.1,1.2,73,0.00,CLR,SKC,0.00,WeatherDisplay:10.37,2013-06-01 07:05:00,
2013-06-01 02:10:00,58.5,50.2,29.32,SSW,203,0.7,2.3,74,0.00,CLR,SKC,0.00,WeatherDisplay:10.37,2013-06-01 07:10:00,
2013-06-01 02:15:00,58.6,50.3,29.32,SSW,203,0.8,2.3,74,0.00,CLR,SKC,0.00,WeatherDisplay:10.37,2013-06-01 07:15:00,
2013-06-01 02:20:00,58.5,50.2,29.33,SSW,203,0.7,3.5,74,0.00,CLR,SKC,0.00,WeatherDisplay:10.37,2013-06-01 07:20:00,
2013-06-01 02:25:00,58.4,50.1,29.33,SSW,203,0.5,2.3,74,0.00,CLR,SKC,0.00,WeatherDisplay:10.37,2013-06-01 07:25:00,
2013-06-01 02:30:00,58.4,50.1,29.33,SSW,203,0.2,1.2,74,0.00,CLR,SKC,0.00,WeatherDisplay:10.37,2013-06-01 07:30:00,
2013-06-01 02:35:00,58.3,49.7,29.33,SSW,203,0.0,0.0,73,0.00,CLR,SKC,0.00,WeatherDisplay:10.37,2013-06-01 07:35:00,
2013-06-01 02:40:00,58.2,49.6,29.33,SSW,203,0.0,1.2,73,0.00,CLR,SKC,0.00,WeatherDisplay:10.37,2013-06-01 07:40:00,
2013-06-01 02:45:00,58.2,50.0,29.32,SSW,203,0.0,0.0,74,0.00,BKN,SKC,0.00,WeatherDisplay:10.37,2013-06-01 07:45:00,
2013-06-01 02:50:00,58.0,49.8,29.32,SSW,203,0.0,1.2,74,0.00,BKN,SKC,0.00,WeatherDisplay:10.37,2013-06-01 07:50:00,
2013-06-01 02:55:00,57.8,49.6,29.32,SSW,203,1.2,3.5,74,0.00,BKN,SKC,0.00,WeatherDisplay:10.37,2013-06-01 07:55:00,
2013-06-01 03:00:00,58.0,49.8,29.32,SSW,203,0.0,1.2,74,0.00,BKN,SKC,0.00,WeatherDisplay:10.37,2013-06-01 08:00:00,
2013-06-01 03:05:00,58.1,49.9,29.32,SSW,203,0.0,0.0,74,0.00,OVC,SKC,0.00,WeatherDisplay:10.37,2013-06-01 08:05:00,
2013-06-01 03:10:00,58.1,49.9,29.32,SSW,203,0.0,0.0,74,0.00,OVC,SKC,0.00,WeatherDisplay:10.37,2013-06-01 08:10:00,
2013-06-01 03:15:00,58.0,49.8,29.31,SSW,203,0.0,0.0,74,0.00,OVC,SKC,0.00,WeatherDisplay:10.37,2013-06-01 08:15:00,
2013-06-01 03:20:00,58.0,49.8,29.31,SSW,203,0.0,0.0,74,0.00,OVC,SKC,0.00,WeatherDisplay:10.37,2013-06-01 08:20:00,
2013-06-01 03:25:00,57.9,49.7,29.30,SSW,203,0.0,0.0,74,0.00,BKN,SKC,0.00,WeatherDisplay:10.37,2013-06-01 08:25:00,
2013-06-01 03:30:00,57.9,49.7,29.31,SSW,203,0.0,0.0,74,0.00,BKN,SKC,0.00,WeatherDisplay:10.37,2013-06-01 08:30:00,
2013-06-01 03:35:00,57.8,49.6,29.31,SSW,203,0.0,0.0,74,0.00,BKN,SKC,0.00,WeatherDisplay:10.37,2013-06-01 08:35:00,
2013-06-01 03:40:00,57.8,49.6,29.31,SSW,203,0.0,0.0,74,0.00,BKN,SKC,0.00,WeatherDisplay:10.37,2013-06-01 08:40:00,
2013-06-01 03:45:00,57.7,49.5,29.31,SSW,203,0.0,0.0,74,0.00,BKN,SKC,0.00,WeatherDisplay:10.37,2013-06-01 08:45:00,
2013-06-01 03:50:00,57.6,49.4,29.30,SSW,203,0.0,0.0,74,0.00,BKN,SKC,0.00,WeatherDisplay:10.37,2013-06-01 08:50:00,
2013-06-01 03:55:00,57.6,49.4,29.30,SSW,203,0.0,0.0,74,0.00,BKN,SKC,0.00,WeatherDisplay:10.37,2013-06-01 08:55:00,
2013-06-01 04:00:00,57.5,49.6,29.30,SSW,203,0.0,0.0,75,0.00,BKN,SKC,0.00,WeatherDisplay:10.37,2013-06-01 09:00:00,
2013-06-01 04:05:00,57.4,49.5,29.30,SSW,203,0.0,0.0,75,0.00,OVC,SKC,0.00,WeatherDisplay:10.37,2013-06-01 09:05:00,
2013-06-01 04:10:00,57.3,49.4,29.30,SSW,203,0.0,1.2,75,0.00,OVC,SKC,0.00,WeatherDisplay:10.37,2013-06-01 09:10:00,
2013-06-01 04:15:00,57.4,49.5,29.30,SSW,203,0.1,1.2,75,0.00,OVC,SKC,0.00,WeatherDisplay:10.37,2013-06-01 09:15:00,
2013-06-01 04:20:00,57.5,49.6,29.30,SSW,203,0.3,1.2,75,0.00,OVC,SKC,0.00,WeatherDisplay:10.37,2013-06-01 09:20:00,
2013-06-01 04:25:00,57.6,49.4,29.30,SSW,203,0.1,1.2,74,0.00,OVC,SKC,0.00,WeatherDisplay:10.37,2013-06-01 09:25:00,
2013-06-01 04:30:00,57.7,49.5,29.31,SSW,203,0.1,1.2,74,0.00,OVC,SKC,0.00,WeatherDisplay:10.37,2013-06-01 09:30:00,
2013-06-01 04:35:00,57.6,49.4,29.31,SSW,203,0.6,2.3,74,0.00,OVC,SKC,0.00,WeatherDisplay:10.37,2013-06-01 09:35:00,
2013-06-01 04:40:00,57.5,48.9,29.31,SSW,203,0.2,1.2,73,0.00,OVC,SKC,0.00,WeatherDisplay:10.37,2013-06-01 09:40:00,
2013-06-01 04:45:00,57.4,48.8,29.31,SSW,203,0.7,2.3,73,0.00,BKN,SKC,0.00,WeatherDisplay:10.37,2013-06-01 09:45:00,
2013-06-01 04:50:00,57.3,49.1,29.31,SSW,203,0.2,1.2,74,0.00,BKN,SKC,0.00,WeatherDisplay:10.37,2013-06-01 09:50:00,
2013-06-01 04:55:00,57.1,48.5,29.31,SSW,203,0.1,1.2,73,0.00,BKN,SKC,0.00,WeatherDisplay:10.37,2013-06-01 09:55:00,
2013-06-01 05:00:00,57.0,48.4,29.31,SSW,203,0.0,1.2,73,0.00,BKN,SKC,0.00,WeatherDisplay:10.37,2013-06-01 10:00:00,
2013-06-01 05:05:00,56.8,48.2,29.31,SSW,203,0.0,0.0,73,0.00,BKN,SKC,0.00,WeatherDisplay:10.37,2013-06-01 10:05:00,
2013-06-01 05:10:00,56.7,48.1,29.32,SSW,203,0.0,0.0,73,0.00,BKN,SKC,0.00,WeatherDisplay:10.37,2013-06-01 10:10:00,
2013-06-01 05:15:00,56.4,48.2,29.32,SSW,203,0.0,0.0,74,0.00,BKN,SKC,0.00,WeatherDisplay:10.37,2013-06-01 10:15:00,
2013-06-01 05:20:00,56.3,48.1,29.32,SSW,203,0.0,0.0,74,0.00,BKN,SKC,0.00,WeatherDisplay:10.37,2013-06-01 10:20:00,
2013-06-01 05:25:00,56.3,48.5,29.32,SSW,203,0.0,1.2,75,0.00,BKN,SKC,0.00,WeatherDisplay:10.37,2013-06-01 10:25:00,
2013-06-01 05:30:00,56.3,48.5,29.32,SSW,203,0.0,0.0,75,0.00,BKN,SKC,0.00,WeatherDisplay:10.37,2013-06-01 10:30:00,
2013-06-01 05:35:00,56.4,48.2,29.32,SSW,203,0.0,0.0,74,0.00,BKN,SKC,0.00,WeatherDisplay:10.37,2013-06-01 10:35:00,
2013-06-01 05:40:00,56.4,48.2,29.32,SSW,203,0.0,0.0,74,0.00,BKN,SKC,0.00,WeatherDisplay:10.37,2013-06-01 10:40:00,
2013-06-01 05:45:00,56.4,48.2,29.33,SSW,203,0.0,0.0,74,0.00,SCT,SKC,0.00,WeatherDisplay:10.37,2013-06-01 10:45:00,
2013-06-01 05:50:00,56.4,48.2,29.33,SSW,203,0.0,0.0,74,0.00,SCT,SKC,0.00,WeatherDisplay:10.37,2013-06-01 10:50:00,
2013-06-01 05:55:00,56.3,48.1,29.34,SSW,203,0.0,0.0,74,0.00,SCT,SKC,0.00,WeatherDisplay:10.37,2013-06-01 10:55:00,
2013-06-01 06:00:00,56.2,48.0,29.34,SSW,203,0.0,0.0,74,0.00,SCT,SKC,0.00,WeatherDisplay:10.37,2013-06-01 11:00:00,
2013-06-01 06:05:00,56.0,47.8,29.34,SSW,203,0.0,0.0,74,0.00,CLR,SKC,0.00,WeatherDisplay:10.37,2013-06-01 11:05:00,
2013-06-01 06:10:00,55.9,47.7,29.34,SSW,203,0.0,0.0,74,0.00,CLR,SKC,0.00,WeatherDisplay:10.37,2013-06-01 11:10:00,
2013-06-01 06:15:00,55.8,47.6,29.33,SSW,203,0.0,0.0,74,0.00,CLR,SKC,0.00,WeatherDisplay:10.37,2013-06-01 11:15:00,
2013-06-01 06:20:00,55.7,47.5,29.33,SSW,203,0.0,0.0,74,0.00,CLR,SKC,0.00,WeatherDisplay:10.37,2013-06-01 11:20:00,
2013-06-01 06:25:00,55.5,47.3,29.34,SSW,203,0.0,0.0,74,0.00,CLR,SKC,0.00,WeatherDisplay:10.37,2013-06-01 11:25:00,
2013-06-01 06:30:00,55.5,47.3,29.34,SSW,203,0.0,0.0,74,0.00,CLR,SKC,0.00,WeatherDisplay:10.37,2013-06-01 11:30:00,
2013-06-01 06:35:00,55.5,47.7,29.33,SSW,203,0.0,0.0,75,0.00,CLR,SKC,0.00,WeatherDisplay:10.37,2013-06-01 11:35:00,
2013-06-01 06:40:00,55.7,47.5,29.33,SSW,203,0.0,0.0,74,0.00,CLR,SKC,0.00,WeatherDisplay:10.37,2013-06-01 11:40:00,
2013-06-01 06:45:00,55.8,48.0,29.34,SSW,203,0.0,0.0,75,0.00,CLR,SKC,0.00,WeatherDisplay:10.37,2013-06-01 11:45:00,
2013-06-01 06:50:00,56.0,48.2,29.34,SSW,203,0.0,0.0,75,0.00,CLR,SKC,0.00,WeatherDisplay:10.37,2013-06-01 11:50:00,
2013-06-01 06:55:00,56.2,48.4,29.34,SSW,203,0.0,0.0,75,0.00,CLR,SKC,0.00,WeatherDisplay:10.37,2013-06-01 11:55:00,
2013-06-01 07:00:00,56.5,48.3,29.34,SSW,203,0.7,2.3,74,0.00,CLR,SKC,0.00,WeatherDisplay:10.37,2013-06-01 12:00:00,
2013-06-01 07:05:00,56.8,48.6,29.34,SSW,203,0.0,1.2,74,0.00,CLR,SKC,0.00,WeatherDisplay:10.37,2013-06-01 12:05:00,
2013-06-01 07:10:00,57.2,48.6,29.34,SSW,203,1.0,3.5,73,0.00,CLR,SKC,0.00,WeatherDisplay:10.37,2013-06-01 12:10:00,
2013-06-01 07:15:00,57.6,49.0,29.34,SSW,203,0.0,0.0,73,0.00,CLR,SKC,0.00,WeatherDisplay:10.37,2013-06-01 12:15:00,
2013-06-01 07:20:00,58.0,49.8,29.34,SSW,203,0.0,0.0,74,0.00,CLR,SKC,0.00,WeatherDisplay:10.37,2013-06-01 12:20:00,
2013-06-01 07:25:00,58.6,50.0,29.33,SSW,203,0.1,1.2,73,0.00,CLR,SKC,0.00,WeatherDisplay:10.37,2013-06-01 12:25:00,
2013-06-01 07:30:00,59.1,50.1,29.34,SSW,203,0.2,1.2,72,0.00,CLR,SKC,0.00,WeatherDisplay:10.37,2013-06-01 12:30:00,
2013-06-01 07:35:00,59.5,50.5,29.34,SSW,203,0.7,2.3,72,0.00,CLR,SKC,0.00,WeatherDisplay:10.37,2013-06-01 12:35:00,
2013-06-01 07:40:00,59.8,50.4,29.34,SSW,203,0.4,2.3,71,0.00,CLR,SKC,0.00,WeatherDisplay:10.37,2013-06-01 12:40:00,
2013-06-01 07:45:00,60.2,50.8,29.34,SSW,203,0.2,2.3,71,0.00,CLR,SKC,0.00,WeatherDisplay:10.37,2013-06-01 12:45:00,
2013-06-01 07:50:00,60.5,51.0,29.34,SSW,203,0.1,1.2,71,0.00,CLR,SKC,0.00,WeatherDisplay:10.37,2013-06-01 12:50:00,
2013-06-01 07:55:00,60.9,51.4,29.35,SSW,203,0.1,1.2,71,0.00,CLR,SKC,0.00,WeatherDisplay:10.37,2013-06-01 12:55:00,
2013-06-01 08:00:00,61.3,51.8,29.34,SSW,203,0.2,1.2,71,0.00,CLR,SKC,0.00,WeatherDisplay:10.37,2013-06-01 13:00:00,
2013-06-01 08:05:00,61.6,52.1,29.35,SSW,203,0.2,1.2,71,0.00,CLR,SKC,0.00,WeatherDisplay:10.37,2013-06-01 13:05:00,
2013-06-01 08:10:00,61.7,52.2,29.35,SSW,203,0.0,2.3,71,0.00,CLR,SKC,0.00,WeatherDisplay:10.37,2013-06-01 13:10:00,
2013-06-01 08:15:00,62.0,52.5,29.35,SSW,203,0.2,2.0,71,0.00,CLR,SKC,0.00,WeatherDisplay:10.37,2013-06-01 13:15:00,
2013-06-01 08:20:00,62.2,52.7,29.35,SSW,203,2.2,3.5,71,0.00,CLR,SKC,0.00,WeatherDisplay:10.37,2013-06-01 13:20:00,
2013-06-01 08:25:00,62.3,52.4,29.36,SSW,203,1.0,4.0,70,0.00,CLR,SKC,0.00,WeatherDisplay:10.37,2013-06-01 13:25:00,
2013-06-01 08:30:00,62.6,52.7,29.36,SSW,203,0.3,1.2,70,0.00,CLR,SKC,0.00,WeatherDisplay:10.37,2013-06-01 13:30:00,
2013-06-01 08:35:00,62.9,53.0,29.36,SSW,203,0.8,3.0,70,0.00,CLR,SKC,0.00,WeatherDisplay:10.37,2013-06-01 13:35:00,
2013-06-01 08:40:00,63.3,53.3,29.36,SSW,203,0.4,2.3,70,0.00,CLR,SKC,0.00,WeatherDisplay:10.37,2013-06-01 13:40:00,
2013-06-01 08:45:00,63.4,53.4,29.36,SSW,209,2.5,4.0,70,0.00,CLR,SKC,0.00,WeatherDisplay:10.37,2013-06-01 13:45:00,
2013-06-01 08:50:00,63.5,53.5,29.36,SSW,209,0.5,2.3,70,0.00,CLR,SKC,0.00,WeatherDisplay:10.37,2013-06-01 13:50:00,
2013-06-01 08:55:00,63.7,53.7,29.36,SSW,209,0.4,3.0,70,0.00,CLR,SKC,0.00,WeatherDisplay:10.37,2013-06-01 13:55:00,
2013-06-01 09:00:00,63.8,54.2,29.37,SSW,209,1.2,3.5,71,0.00,CLR,SKC,0.00,WeatherDisplay:10.37,2013-06-01 14:00:00,
2013-06-01 09:05:00,64.0,54.0,29.37,SSW,209,1.1,3.5,70,0.00,CLR,SKC,0.00,WeatherDisplay:10.37,2013-06-01 14:05:00,
2013-06-01 09:10:00,64.4,54.4,29.37,SSW,209,0.5,3.5,70,0.00,CLR,SKC,0.00,WeatherDisplay:10.37,2013-06-01 14:10:00,
2013-06-01 09:15:00,64.5,54.1,29.37,SSW,209,0.3,3.5,69,0.00,CLR,SKC,0.00,WeatherDisplay:10.37,2013-06-01 14:15:00,
2013-06-01 09:20:00,65.1,55.5,29.37,SSW,209,0.6,3.5,71,0.00,CLR,SKC,0.00,WeatherDisplay:10.37,2013-06-01 14:20:00,
2013-06-01 09:25:00,65.7,55.2,29.37,SSW,209,0.8,3.5,69,0.00,CLR,SKC,0.00,WeatherDisplay:10.37,2013-06-01 14:25:00,
2013-06-01 09:30:00,66.9,56.4,29.37,SW,225,0.2,1.2,69,0.00,CLR,SKC,0.00,WeatherDisplay:10.37,2013-06-01 14:30:00,
2013-06-01 09:35:00,67.7,56.3,29.37,SW,225,1.3,3.5,67,0.00,CLR,SKC,0.00,WeatherDisplay:10.37,2013-06-01 14:35:00,
2013-06-01 09:40:00,68.1,56.7,29.37,SW,225,1.0,3.5,67,0.00,CLR,SKC,0.00,WeatherDisplay:10.37,2013-06-01 14:40:00,
2013-06-01 09:45:00,67.9,56.1,29.38,SW,223,2.9,8.1,66,0.00,CLR,SKC,0.00,WeatherDisplay:10.37,2013-06-01 14:45:00,
2013-06-01 09:50:00,67.9,56.1,29.37,SW,223,0.5,2.3,66,0.00,CLR,SKC,0.00,WeatherDisplay:10.37,2013-06-01 14:50:00,
2013-06-01 09:55:00,67.0,55.7,29.38,SW,223,0.2,3.5,67,0.00,CLR,SKC,0.00,WeatherDisplay:10.37,2013-06-01 14:55:00,
2013-06-01 10:00:00,66.6,56.1,29.38,SW,223,1.0,3.5,69,0.00,CLR,SKC,0.00,WeatherDisplay:10.37,2013-06-01 15:00:00,
2013-06-01 10:05:00,66.8,56.3,29.38,SW,223,0.3,1.2,69,0.00,SCT,SKC,0.00,WeatherDisplay:10.37,2013-06-01 15:05:00,
2013-06-01 10:10:00,67.2,55.9,29.37,SW,223,1.4,3.5,67,0.00,SCT,SKC,0.00,WeatherDisplay:10.37,2013-06-01 15:10:00,
2013-06-01 10:15:00,67.0,56.1,29.38,SW,223,1.0,3.5,68,0.00,SCT,SKC,0.00,WeatherDisplay:10.37,2013-06-01 15:15:00,
2013-06-01 10:20:00,66.6,55.3,29.38,West,263,2.7,5.0,67,0.00,SCT,SKC,0.00,WeatherDisplay:10.37,2013-06-01 15:20:00,
2013-06-01 10:25:00,66.4,55.9,29.38,West,263,0.8,3.5,69,0.00,SCT,SKC,0.00,WeatherDisplay:10.37,2013-06-01 15:25:00,
2013-06-01 10:30:00,67.2,56.7,29.38,West,261,1.1,3.5,69,0.00,SCT,SKC,0.00,WeatherDisplay:10.37,2013-06-01 15:30:00,
2013-06-01 10:35:00,68.0,55.8,29.38,West,260,1.9,4.6,65,0.00,BKN,SKC,0.00,WeatherDisplay:10.37,2013-06-01 15:35:00,
2013-06-01 10:40:00,68.1,55.9,29.38,West,260,1.1,2.3,65,0.00,BKN,SKC,0.00,WeatherDisplay:10.37,2013-06-01 15:40:00,
2013-06-01 10:45:00,67.7,55.5,29.38,WSW,245,3.2,5.8,65,0.00,BKN,SKC,0.00,WeatherDisplay:10.37,2013-06-01 15:45:00,
2013-06-01 10:50:00,67.9,55.7,29.38,SW,215,1.2,6.0,65,0.00,BKN,SKC,0.00,WeatherDisplay:10.37,2013-06-01 15:50:00,
2013-06-01 10:55:00,68.0,55.4,29.38,SW,217,1.2,3.5,64,0.00,BKN,SKC,0.00,WeatherDisplay:10.37,2013-06-01 15:55:00,
2013-06-01 11:00:00,67.9,56.1,29.39,SW,221,1.5,5.0,66,0.00,BKN,SKC,0.00,WeatherDisplay:10.37,2013-06-01 16:00:00,
2013-06-01 11:05:00,67.3,55.1,29.39,SW,227,1.0,2.3,65,0.00,OVC,SKC,0.00,WeatherDisplay:10.37,2013-06-01 16:05:00,
2013-06-01 11:10:00,66.8,55.5,29.39,SW,226,0.1,3.5,67,0.00,OVC,SKC,0.00,WeatherDisplay:10.37,2013-06-01 16:10:00,
2013-06-01 11:15:00,66.6,54.9,29.39,SW,225,4.0,6.9,66,0.00,OVC,SKC,0.00,WeatherDisplay:10.37,2013-06-01 16:15:00,
2013-06-01 11:20:00,66.4,55.1,29.39,SW,223,3.7,5.0,67,0.00,OVC,SKC,0.00,WeatherDisplay:10.37,2013-06-01 16:20:00,
2013-06-01 11:25:00,66.0,55.1,29.40,SW,223,0.0,1.2,68,0.00,OVC,SKC,0.00,WeatherDisplay:10.37,2013-06-01 16:25:00,
2013-06-01 11:30:00,65.6,55.2,29.40,SW,223,0.0,1.2,69,0.00,OVC,SKC,0.00,WeatherDisplay:10.37,2013-06-01 16:30:00,
2013-06-01 11:35:00,65.4,55.0,29.40,SW,223,0.3,1.2,69,0.00,OVC,SKC,0.00,WeatherDisplay:10.37,2013-06-01 16:35:00,
2013-06-01 11:40:00,65.2,54.8,29.40,SW,223,0.3,2.3,69,0.00,OVC,SKC,0.00,WeatherDisplay:10.37,2013-06-01 16:40:00,
2013-06-01 11:45:00,65.0,54.6,29.40,SW,223,0.9,2.3,69,0.00,OVC,SKC,0.00,WeatherDisplay:10.37,2013-06-01 16:45:00,
2013-06-01 11:50:00,64.9,54.5,29.40,SW,223,0.1,2.3,69,0.00,OVC,SKC,0.00,WeatherDisplay:10.37,2013-06-01 16:50:00,
2013-06-01 11:55:00,64.9,54.5,29.40,SW,223,0.5,2.3,69,0.00,OVC,SKC,0.00,WeatherDisplay:10.37,2013-06-01 16:55:00,
2013-06-01 12:00:00,65.1,54.7,29.40,SW,223,0.2,3.5,69,0.00,OVC,SKC,0.00,WeatherDisplay:10.37,2013-06-01 17:00:00,
2013-06-01 12:05:00,65.2,55.2,29.40,SW,223,0.5,3.5,70,0.00,OVC,SKC,0.00,WeatherDisplay:10.37,2013-06-01 17:05:00,
2013-06-01 12:10:00,65.3,54.9,29.41,SW,223,0.1,1.2,69,0.00,OVC,SKC,0.00,WeatherDisplay:10.37,2013-06-01 17:10:00,
2013-06-01 12:15:00,65.5,55.1,29.41,SW,223,0.7,2.3,69,0.00,OVC,SKC,0.00,WeatherDisplay:10.37,2013-06-01 17:15:00,
2013-06-01 12:20:00,65.4,55.0,29.41,SW,223,0.0,1.2,69,0.00,OVC,SKC,0.00,WeatherDisplay:10.37,2013-06-01 17:20:00,
2013-06-01 12:25:00,65.5,55.1,29.40,SW,223,0.3,2.0,69,0.00,BKN,SKC,0.00,WeatherDisplay:10.37,2013-06-01 17:25:00,
2013-06-01 12:30:00,65.5,55.1,29.41,SW,223,1.7,4.0,69,0.00,BKN,SKC,0.00,WeatherDisplay:10.37,2013-06-01 17:30:00,
2013-06-01 12:35:00,65.4,55.0,29.41,SW,223,0.2,2.3,69,0.00,BKN,SKC,0.00,WeatherDisplay:10.37,2013-06-01 17:35:00,
2013-06-01 12:40:00,65.5,55.1,29.41,SW,223,1.3,5.0,69,0.00,BKN,SKC,0.00,WeatherDisplay:10.37,2013-06-01 17:40:00,
2013-06-01 12:45:00,65.8,54.5,29.41,SW,229,0.3,4.6,67,0.00,BKN,SKC,0.00,WeatherDisplay:10.37,2013-06-01 17:45:00,
2013-06-01 12:50:00,66.0,55.1,29.41,SW,227,1.6,3.5,68,0.00,BKN,SKC,0.00,WeatherDisplay:10.37,2013-06-01 17:50:00,
2013-06-01 12:55:00,65.9,55.0,29.42,SW,227,0.8,2.3,68,0.00,BKN,SKC,0.00,WeatherDisplay:10.37,2013-06-01 17:55:00,
2013-06-01 13:00:00,65.9,55.0,29.42,SW,227,0.0,1.2,68,0.00,BKN,SKC,0.00,WeatherDisplay:10.37,2013-06-01 18:00:00,
2013-06-01 13:05:00,65.7,55.2,29.42,SW,227,0.2,1.2,69,0.00,OVC,SKC,0.00,WeatherDisplay:10.37,2013-06-01 18:05:00,
2013-06-01 13:10:00,65.8,55.3,29.42,SW,227,0.5,3.5,69,0.00,OVC,SKC,0.00,WeatherDisplay:10.37,2013-06-01 18:10:00,
2013-06-01 13:15:00,65.8,54.9,29.42,SW,227,0.4,2.3,68,0.00,OVC,SKC,0.00,WeatherDisplay:10.37,2013-06-01 18:15:00,
2013-06-01 13:20:00,65.7,54.8,29.42,SW,227,1.1,3.5,68,0.00,OVC,SKC,0.00,WeatherDisplay:10.37,2013-06-01 18:20:00,
2013-06-01 13:25:00,65.9,55.4,29.42,SW,227,0.5,2.3,69,0.00,OVC,SKC,0.00,WeatherDisplay:10.37,2013-06-01 18:25:00,
2013-06-01 13:30:00,66.2,55.3,29.42,SW,227,0.0,1.2,68,0.00,OVC,SKC,0.00,WeatherDisplay:10.37,2013-06-01 18:30:00,
2013-06-01 13:35:00,66.6,55.7,29.42,West,281,1.9,5.8,68,0.00,OVC,SKC,0.00,WeatherDisplay:10.37,2013-06-01 18:35:00,
2013-06-01 13:40:00,66.7,55.8,29.42,West,281,2.3,3.5,68,0.00,OVC,SKC,0.00,WeatherDisplay:10.37,2013-06-01 18:40:00,
2013-06-01 13:45:00,66.7,55.8,29.42,West,280,2.4,4.0,68,0.00,OVC,SKC,0.00,WeatherDisplay:10.37,2013-06-01 18:45:00,
2013-06-01 13:50:00,66.3,55.4,29.42,West,280,5.5,6.9,68,0.00,OVC,SKC,0.00,WeatherDisplay:10.37,2013-06-01 18:50:00,
2013-06-01 13:55:00,65.8,55.3,29.42,West,281,5.5,6.9,69,0.00,OVC,SKC,0.00,WeatherDisplay:10.37,2013-06-01 18:55:00,
2013-06-01 14:00:00,65.0,54.6,29.42,West,280,5.6,8.1,69,0.00,OVC,SKC,0.00,WeatherDisplay:10.37,2013-06-01 19:00:00,
2013-06-01 14:05:00,64.4,54.4,29.42,West,280,4.7,8.1,70,0.00,OVC,SKC,0.00,WeatherDisplay:10.37,2013-06-01 19:05:00,
2013-06-01 14:10:00,64.1,54.1,29.42,West,279,4.7,7.0,70,0.00,OVC,SKC,0.00,WeatherDisplay:10.37,2013-06-01 19:10:00,
2013-06-01 14:15:00,63.7,53.7,29.43,West,279,5.1,6.9,70,0.00,OVC,SKC,0.00,WeatherDisplay:10.37,2013-06-01 19:15:00,
2013-06-01 14:20:00,63.5,53.9,29.43,West,279,4.8,6.0,71,0.00,OVC,SKC,0.00,WeatherDisplay:10.37,2013-06-01 19:20:00,
2013-06-01 14:25:00,63.8,53.8,29.43,West,279,5.8,8.1,70,0.00,OVC,SKC,0.00,WeatherDisplay:10.37,2013-06-01 19:25:00,
2013-06-01 14:30:00,63.7,53.7,29.43,West,279,4.7,6.9,70,0.00,OVC,SKC,0.00,WeatherDisplay:10.37,2013-06-01 19:30:00,
2013-06-01 14:35:00,63.8,53.8,29.43,West,279,2.1,4.6,70,0.00,OVC,SKC,0.00,WeatherDisplay:10.37,2013-06-01 19:35:00,
2013-06-01 14:40:00,64.1,54.1,29.43,West,279,1.7,3.5,70,0.00,OVC,SKC,0.00,WeatherDisplay:10.37,2013-06-01 19:40:00,
2013-06-01 14:45:00,64.3,54.3,29.43,West,279,0.9,3.5,70,0.00,OVC,SKC,0.00,WeatherDisplay:10.37,2013-06-01 19:45:00,
2013-06-01 14:50:00,65.0,55.0,29.43,West,279,0.0,2.3,70,0.00,OVC,SKC,0.00,WeatherDisplay:10.37,2013-06-01 19:50:00,
2013-06-01 14:55:00,65.3,55.3,29.43,West,279,0.2,1.2,70,0.00,OVC,SKC,0.00,WeatherDisplay:10.37,2013-06-01 19:55:00,
2013-06-01 15:00:00,65.6,55.5,29.43,West,279,0.3,1.2,70,0.00,OVC,SKC,0.00,WeatherDisplay:10.37,2013-06-01 20:00:00,
2013-06-01 15:05:00,65.8,55.7,29.43,West,279,2.3,3.5,70,0.00,BKN,SKC,0.00,WeatherDisplay:10.37,2013-06-01 20:05:00,
2013-06-01 15:10:00,66.1,56.0,29.42,West,279,1.7,3.5,70,0.00,BKN,SKC,0.00,WeatherDisplay:10.37,2013-06-01 20:10:00,
2013-06-01 15:15:00,67.0,56.9,29.43,West,279,1.7,3.5,70,0.00,BKN,SKC,0.00,WeatherDisplay:10.37,2013-06-01 20:15:00,
2013-06-01 15:20:00,67.4,56.9,29.42,West,279,2.1,5.8,69,0.00,BKN,SKC,0.00,WeatherDisplay:10.37,2013-06-01 20:20:00,
2013-06-01 15:25:00,67.7,57.2,29.43,West,279,2.7,5.0,69,0.00,BKN,SKC,0.00,WeatherDisplay:10.37,2013-06-01 20:25:00,
2013-06-01 15:30:00,67.8,57.3,29.42,West,279,2.7,4.6,69,0.00,BKN,SKC,0.00,WeatherDisplay:10.37,2013-06-01 20:30:00,
2013-06-01 15:35:00,68.0,57.4,29.43,West,279,2.2,3.5,69,0.00,BKN,SKC,0.00,WeatherDisplay:10.37,2013-06-01 20:35:00,
2013-06-01 15:40:00,68.6,58.0,29.43,West,279,2.2,4.0,69,0.00,BKN,SKC,0.00,WeatherDisplay:10.37,2013-06-01 20:40:00,
2013-06-01 15:45:00,68.9,58.3,29.43,West,279,1.6,3.5,69,0.00,SCT,SKC,0.00,WeatherDisplay:10.37,2013-06-01 20:45:00,
2013-06-01 15:50:00,69.2,58.6,29.43,West,279,0.7,3.5,69,0.00,SCT,SKC,0.00,WeatherDisplay:10.37,2013-06-01 20:50:00,
2013-06-01 15:55:00,70.0,59.0,29.43,West,279,1.6,4.6,68,0.00,SCT,SKC,0.00,WeatherDisplay:10.37,2013-06-01 20:55:00,
2013-06-01 16:00:00,70.5,59.0,29.42,West,279,0.7,3.5,67,0.00,SCT,SKC,0.00,WeatherDisplay:10.37,2013-06-01 21:00:00,
2013-06-01 16:05:00,70.1,59.0,29.42,West,279,0.6,3.5,68,0.00,SCT,SKC,0.00,WeatherDisplay:10.37,2013-06-01 21:05:00,
2013-06-01 16:10:00,70.5,58.6,29.42,West,279,4.2,7.0,66,0.00,SCT,SKC,0.00,WeatherDisplay:10.37,2013-06-01 21:10:00,
2013-06-01 16:15:00,70.8,58.9,29.42,WNW,300,2.7,5.0,66,0.00,SCT,SKC,0.00,WeatherDisplay:10.37,2013-06-01 21:15:00,
2013-06-01 16:20:00,71.3,59.8,29.42,WNW,300,2.0,4.0,67,0.00,SCT,SKC,0.00,WeatherDisplay:10.37,2013-06-01 21:20:00,
2013-06-01 16:25:00,71.7,59.3,29.43,WNW,300,1.5,3.5,65,0.00,SCT,SKC,0.00,WeatherDisplay:10.37,2013-06-01 21:25:00,
2013-06-01 16:30:00,71.7,58.9,29.43,WNW,299,3.9,5.8,64,0.00,SCT,SKC,0.00,WeatherDisplay:10.37,2013-06-01 21:30:00,
2013-06-01 16:35:00,71.3,59.4,29.43,WNW,299,2.4,6.0,66,0.00,SCT,SKC,0.00,WeatherDisplay:10.37,2013-06-01 21:35:00,
2013-06-01 16:40:00,70.8,58.4,29.43,WNW,298,2.8,5.8,65,0.00,SCT,SKC,0.00,WeatherDisplay:10.37,2013-06-01 21:40:00,
2013-06-01 16:45:00,70.8,58.9,29.43,WNW,298,3.5,5.8,66,0.00,SCT,SKC,0.00,WeatherDisplay:10.37,2013-06-01 21:45:00,
2013-06-01 16:50:00,70.8,58.9,29.43,WNW,298,3.6,6.0,66,0.00,SCT,SKC,0.00,WeatherDisplay:10.37,2013-06-01 21:50:00,
2013-06-01 16:55:00,70.0,58.5,29.43,WNW,287,6.9,11.5,67,0.00,SCT,SKC,0.00,WeatherDisplay:10.37,2013-06-01 21:55:00,
2013-06-01 17:00:00,68.6,57.6,29.44,NW,326,5.8,8.1,68,0.00,SCT,SKC,0.00,WeatherDisplay:10.37,2013-06-01 22:00:00,
2013-06-01 17:05:00,66.7,56.2,29.45,NW,309,6.6,10.4,69,0.00,BKN,SKC,0.00,WeatherDisplay:10.37,2013-06-01 22:05:00,
2013-06-01 17:10:00,65.5,55.1,29.45,NW,311,3.9,9.2,69,0.00,BKN,SKC,0.00,WeatherDisplay:10.37,2013-06-01 22:10:00,
2013-06-01 17:15:00,64.7,54.7,29.45,NNW,338,3.8,9.2,70,0.00,BKN,SKC,0.00,WeatherDisplay:10.37,2013-06-01 22:15:00,
2013-06-01 17:20:00,63.8,55.0,29.46,NW,326,3.5,5.8,73,0.00,BKN,SKC,0.00,WeatherDisplay:10.37,2013-06-01 22:20:00,
2013-06-01 17:25:00,62.9,54.9,29.46,NNW,330,2.7,4.6,75,0.00,BKN,SKC,0.00,WeatherDisplay:10.37,2013-06-01 22:25:00,
2013-06-01 17:30:00,62.5,54.5,29.46,NNW,338,3.8,9.2,75,0.01,RA,SKC,0.01,WeatherDisplay:10.37,2013-06-01 22:30:00,
2013-06-01 17:35:00,62.2,54.5,29.46,NNW,346,4.7,7.0,76,0.01,RA,SKC,0.01,WeatherDisplay:10.37,2013-06-01 22:35:00,
2013-06-01 17:40:00,62.1,54.4,29.47,North,349,3.2,5.8,76,0.01,BKN,SKC,0.01,WeatherDisplay:10.37,2013-06-01 22:40:00,
2013-06-01 17:45:00,62.1,54.4,29.47,North,355,2.7,6.0,76,0.01,BKN,SKC,0.01,WeatherDisplay:10.37,2013-06-01 22:45:00,
2013-06-01 17:50:00,62.2,54.9,29.47,North,355,2.8,5.8,77,0.01,BKN,SKC,0.01,WeatherDisplay:10.37,2013-06-01 22:50:00,
2013-06-01 17:55:00,62.4,55.1,29.47,North,355,2.7,6.0,77,0.01,OVC,SKC,0.01,WeatherDisplay:10.37,2013-06-01 22:55:00,
2013-06-01 18:00:00,62.7,55.4,29.47,North,355,1.4,3.5,77,0.01,OVC,SKC,0.01,WeatherDisplay:10.37,2013-06-01 23:00:00,
2013-06-01 18:05:00,62.9,55.6,29.47,North,355,1.5,3.5,77,0.01,OVC,SKC,0.01,WeatherDisplay:10.37,2013-06-01 23:05:00,
2013-06-01 18:10:00,63.2,55.5,29.48,North,355,3.2,5.0,76,0.01,OVC,SKC,0.01,WeatherDisplay:10.37,2013-06-01 23:10:00,
2013-06-01 18:15:00,63.5,55.4,29.48,NNW,348,1.5,3.5,75,0.01,OVC,SKC,0.01,WeatherDisplay:10.37,2013-06-01 23:15:00,
2013-06-01 18:20:00,63.4,55.3,29.49,North,355,0.2,2.3,75,0.01,OVC,SKC,0.01,WeatherDisplay:10.37,2013-06-01 23:20:00,
2013-06-01 18:25:00,63.4,55.3,29.49,North,355,4.0,6.0,75,0.01,OVC,SKC,0.01,WeatherDisplay:10.37,2013-06-01 23:25:00,
2013-06-01 18:30:00,63.2,54.8,29.49,North,355,1.0,8.1,74,0.00,OVC,SKC,0.01,WeatherDisplay:10.37,2013-06-01 23:30:00,
2013-06-01 18:35:00,62.7,54.7,29.49,North,355,1.4,3.5,75,0.00,OVC,SKC,0.01,WeatherDisplay:10.37,2013-06-01 23:35:00,
2013-06-01 18:40:00,62.3,54.3,29.49,North,355,1.1,5.0,75,0.00,OVC,SKC,0.01,WeatherDisplay:10.37,2013-06-01 23:40:00,
2013-06-01 18:45:00,62.1,54.4,29.49,North,355,0.1,2.3,76,0.00,OVC,SKC,0.01,WeatherDisplay:10.37,2013-06-01 23:45:00,
2013-06-01 18:50:00,62.0,54.7,29.50,North,355,0.9,3.5,77,0.00,OVC,SKC,0.01,WeatherDisplay:10.37,2013-06-01 23:50:00,
2013-06-01 18:55:00,62.1,54.4,29.50,North,355,3.1,5.0,76,0.00,OVC,SKC,0.01,WeatherDisplay:10.37,2013-06-01 23:55:00,
2013-06-01 19:00:00,62.3,54.6,29.50,NNW,342,3.6,6.9,76,0.00,OVC,SKC,0.01,WeatherDisplay:10.37,2013-06-02 00:00:00,
2013-06-01 19:05:00,62.5,54.5,29.50,NNW,337,3.8,6.9,75,0.00,OVC,SKC,0.01,WeatherDisplay:10.37,2013-06-02 00:05:00,
2013-06-01 19:10:00,62.5,54.1,29.50,NW,325,5.5,8.1,74,0.00,OVC,SKC,0.01,WeatherDisplay:10.37,2013-06-02 00:10:00,
2013-06-01 19:15:00,62.5,54.1,29.51,NNW,327,4.4,7.0,74,0.00,OVC,SKC,0.01,WeatherDisplay:10.37,2013-06-02 00:15:00,
2013-06-01 19:20:00,62.3,53.5,29.51,NNW,338,3.8,5.8,73,0.00,OVC,SKC,0.01,WeatherDisplay:10.37,2013-06-02 00:20:00,
2013-06-01 19:25:00,62.0,52.9,29.51,NW,322,6.2,8.1,72,0.00,OVC,SKC,0.01,WeatherDisplay:10.37,2013-06-02 00:25:00,
2013-06-01 19:30:00,61.6,52.5,29.51,NW,321,5.7,9.2,72,0.00,OVC,SKC,0.01,WeatherDisplay:10.37,2013-06-02 00:30:00,
2013-06-01 19:35:00,61.3,52.6,29.52,NW,317,4.9,7.0,73,0.00,OVC,SKC,0.01,WeatherDisplay:10.37,2013-06-02 00:35:00,
2013-06-01 19:40:00,61.1,52.4,29.52,NW,315,4.9,9.2,73,0.00,OVC,SKC,0.01,WeatherDisplay:10.37,2013-06-02 00:40:00,
2013-06-01 19:45:00,61.0,51.9,29.52,NW,312,5.9,10.4,72,0.00,OVC,SKC,0.01,WeatherDisplay:10.37,2013-06-02 00:45:00,
2013-06-01 19:50:00,60.9,51.8,29.53,NW,311,2.6,6.9,72,0.00,OVC,SKC,0.01,WeatherDisplay:10.37,2013-06-02 00:50:00,
2013-06-01 19:55:00,60.9,51.8,29.53,NW,309,4.0,8.1,72,0.00,OVC,SKC,0.01,WeatherDisplay:10.37,2013-06-02 00:55:00,
2013-06-01 20:00:00,60.7,51.6,29.53,NW,311,4.6,8.1,72,0.00,OVC,SKC,0.01,WeatherDisplay:10.37,2013-06-02 01:00:00,
2013-06-01 20:05:00,60.6,51.5,29.53,NW,309,4.5,8.1,72,0.00,OVC,SKC,0.01,WeatherDisplay:10.37,2013-06-02 01:05:00,
2013-06-01 20:10:00,60.4,51.3,29.54,NW,312,3.1,5.8,72,0.00,OVC,SKC,0.01,WeatherDisplay:10.37,2013-06-02 01:10:00,
2013-06-01 20:15:00,60.2,51.1,29.54,NW,316,4.8,8.1,72,0.00,OVC,SKC,0.01,WeatherDisplay:10.37,2013-06-02 01:15:00,
2013-06-01 20:20:00,60.0,50.9,29.54,NW,310,6.6,9.2,72,0.00,OVC,SKC,0.01,WeatherDisplay:10.37,2013-06-02 01:20:00,
2013-06-01 20:25:00,59.7,50.7,29.55,WNW,300,4.8,8.1,72,0.00,OVC,SKC,0.01,WeatherDisplay:10.37,2013-06-02 01:25:00,
2013-06-01 20:30:00,59.5,50.5,29.55,NW,304,5.0,8.1,72,0.00,OVC,SKC,0.01,WeatherDisplay:10.37,2013-06-02 01:30:00,
2013-06-01 20:35:00,59.2,49.8,29.55,NW,323,4.1,6.9,71,0.00,OVC,SKC,0.01,WeatherDisplay:10.37,2013-06-02 01:35:00,
2013-06-01 20:40:00,59.0,50.0,29.55,NNW,327,3.7,6.9,72,0.00,OVC,SKC,0.01,WeatherDisplay:10.37,2013-06-02 01:40:00,
2013-06-01 20:45:00,58.9,49.9,29.55,NW,325,5.1,8.1,72,0.00,OVC,SKC,0.01,WeatherDisplay:10.37,2013-06-02 01:45:00,
2013-06-01 20:50:00,58.5,49.5,29.56,NW,321,5.8,9.2,72,0.00,OVC,SKC,0.01,WeatherDisplay:10.37,2013-06-02 01:50:00,
2013-06-01 20:55:00,58.2,49.2,29.56,NW,320,4.4,9.2,72,0.00,OVC,SKC,0.01,WeatherDisplay:10.37,2013-06-02 01:55:00,
2013-06-01 21:00:00,58.1,49.1,29.56,NW,316,5.4,8.1,72,0.00,OVC,SKC,0.01,WeatherDisplay:10.37,2013-06-02 02:00:00,
2013-06-01 21:05:00,57.9,48.9,29.57,NW,316,5.8,9.2,72,0.00,OVC,SKC,0.01,WeatherDisplay:10.37,2013-06-02 02:05:00,
2013-06-01 21:10:00,57.7,48.7,29.57,NW,316,4.8,6.9,72,0.00,OVC,SKC,0.01,WeatherDisplay:10.37,2013-06-02 02:10:00,
2013-06-01 21:15:00,57.6,48.6,29.57,NW,315,4.6,6.9,72,0.00,OVC,SKC,0.01,WeatherDisplay:10.37,2013-06-02 02:15:00,
2013-06-01 21:20:00,57.5,48.5,29.57,NNW,338,5.4,8.1,72,0.00,OVC,SKC,0.01,WeatherDisplay:10.37,2013-06-02 02:20:00,
2013-06-01 21:25:00,57.4,48.4,29.58,NNW,328,5.6,8.1,72,0.00,OVC,SKC,0.01,WeatherDisplay:10.37,2013-06-02 02:25:00,
2013-06-01 21:30:00,57.1,48.2,29.58,NW,321,3.2,6.9,72,0.00,OVC,SKC,0.01,WeatherDisplay:10.37,2013-06-02 02:30:00,
2013-06-01 21:35:00,56.8,47.9,29.59,NW,317,3.1,5.8,72,0.00,OVC,SKC,0.01,WeatherDisplay:10.37,2013-06-02 02:35:00,
2013-06-01 21:40:00,56.5,47.6,29.59,NNW,344,3.1,9.2,72,0.00,OVC,SKC,0.01,WeatherDisplay:10.37,2013-06-02 02:40:00,
2013-06-01 21:45:00,56.3,47.4,29.59,NNW,347,4.3,8.1,72,0.00,OVC,SKC,0.01,WeatherDisplay:10.37,2013-06-02 02:45:00,
2013-06-01 21:50:00,56.1,47.6,29.60,NNW,334,3.9,7.0,73,0.00,OVC,SKC,0.01,WeatherDisplay:10.37,2013-06-02 02:50:00,
2013-06-01 21:55:00,55.8,47.3,29.60,NNW,332,4.9,7.0,73,0.00,OVC,SKC,0.01,WeatherDisplay:10.37,2013-06-02 02:55:00,
2013-06-01 22:00:00,55.7,46.8,29.60,NW,325,3.9,8.1,72,0.00,OVC,SKC,0.01,WeatherDisplay:10.37,2013-06-02 03:00:00,
2013-06-01 22:05:00,55.6,46.7,29.60,NW,325,4.5,6.9,72,0.00,OVC,SKC,0.01,WeatherDisplay:10.37,2013-06-02 03:05:00,
2013-06-01 22:10:00,55.5,46.6,29.61,NNW,328,4.2,6.0,72,0.00,OVC,SKC,0.01,WeatherDisplay:10.37,2013-06-02 03:10:00,
2013-06-01 22:15:00,55.3,46.4,29.61,NNW,331,3.4,5.8,72,0.00,OVC,SKC,0.01,WeatherDisplay:10.37,2013-06-02 03:15:00,
2013-06-01 22:20:00,55.3,46.4,29.61,NNW,345,3.3,6.0,72,0.00,OVC,SKC,0.01,WeatherDisplay:10.37,2013-06-02 03:20:00,
2013-06-01 22:25:00,54.9,46.0,29.62,NNW,338,4.8,9.2,72,0.00,OVC,SKC,0.01,WeatherDisplay:10.37,2013-06-02 03:25:00,
2013-06-01 22:30:00,54.5,45.7,29.62,NNW,333,5.5,13.0,72,0.00,OVC,SKC,0.01,WeatherDisplay:10.37,2013-06-02 03:30:00,
2013-06-01 22:35:00,54.3,45.5,29.62,NNW,344,5.9,10.4,72,0.00,OVC,SKC,0.01,WeatherDisplay:10.37,2013-06-02 03:35:00,
2013-06-01 22:40:00,54.1,45.3,29.63,NNW,336,3.3,11.5,72,0.00,OVC,SKC,0.01,WeatherDisplay:10.37,2013-06-02 03:40:00,
2013-06-01 22:45:00,54.0,45.2,29.63,NNW,348,2.6,7.0,72,0.00,OVC,SKC,0.01,WeatherDisplay:10.37,2013-06-02 03:45:00,
2013-06-01 22:50:00,53.8,45.0,29.63,NNW,338,4.4,10.4,72,0.00,OVC,SKC,0.01,WeatherDisplay:10.37,2013-06-02 03:50:00,
2013-06-01 22:55:00,53.6,44.8,29.63,NNW,333,5.0,9.2,72,0.00,OVC,SKC,0.01,WeatherDisplay:10.37,2013-06-02 03:55:00,
2013-06-01 23:00:00,53.3,44.5,29.64,NNW,338,6.3,10.4,72,0.00,OVC,SKC,0.01,WeatherDisplay:10.37,2013-06-02 04:00:00,
2013-06-01 23:01:00,53.2,44.4,29.64,NNW,345,3.9,10.4,72,0.00,OVC,SKC,0.01,WeatherDisplay:10.37,2013-06-02 04:01:00,
2013-06-01 23:02:00,53.2,44.4,29.64,North,350,4.1,9.2,72,0.00,OVC,SKC,0.01,WeatherDisplay:10.37,2013-06-02 04:02:00,
2013-06-01 23:03:00,53.2,44.4,29.64,NNW,342,4.9,10.4,72,0.00,OVC,SKC,0.01,WeatherDisplay:10.37,2013-06-02 04:03:00,
2013-06-01 23:06:00,53.1,44.3,29.64,NNW,345,5.0,10.0,72,0.00,OVC,SKC,0.01,WeatherDisplay:10.37,2013-06-02 04:06:00,
2013-06-01 23:10:00,52.9,44.1,29.65,NNW,343,2.7,4.0,72,0.00,OVC,SKC,0.01,WeatherDisplay:10.37,2013-06-02 04:10:00,
2013-06-01 23:15:00,52.8,44.0,29.65,NNW,347,2.3,6.9,72,0.00,OVC,SKC,0.01,WeatherDisplay:10.37,2013-06-02 04:15:00,
2013-06-01 23:20:00,52.8,44.0,29.65,North,355,2.6,9.2,72,0.00,OVC,SKC,0.01,WeatherDisplay:10.37,2013-06-02 04:20:00,
2013-06-01 23:25:00,52.8,44.0,29.64,NW,326,3.8,11.0,72,0.00,OVC,SKC,0.01,WeatherDisplay:10.37,2013-06-02 04:25:00,
2013-06-01 23:30:00,52.7,43.9,29.64,NNW,348,2.5,6.9,72,0.00,OVC,SKC,0.01,WeatherDisplay:10.37,2013-06-02 04:30:00,
2013-06-01 23:35:00,52.7,43.9,29.65,NNW,333,3.4,6.9,72,0.00,OVC,SKC,0.01,WeatherDisplay:10.37,2013-06-02 04:35:00,
2013-06-01 23:40:00,52.6,43.8,29.65,NNW,348,3.2,6.0,72,0.00,OVC,SKC,0.01,WeatherDisplay:10.37,2013-06-02 04:40:00,
2013-06-01 23:45:00,52.6,43.8,29.65,NNW,342,4.3,6.9,72,0.00,OVC,SKC,0.01,WeatherDisplay:10.37,2013-06-02 04:45:00,
2013-06-01 23:50:00,52.6,43.8,29.65,NNW,348,3.8,8.1,72,0.00,OVC,SKC,0.01,WeatherDisplay:10.37,2013-06-02 04:50:00,
2013-06-01 23:55:00,52.6,43.8,29.65,NNW,344,2.9,5.8,72,0.00,OVC,SKC,0.01,WeatherDisplay:10.37,2013-06-02 04:55:00,